createdAt,value
2022-07-26T00:00:52.601Z,1.83
2022-07-26T00:03:20.620Z,1.97
2022-07-26T00:05:48.616Z,2.00
2022-07-26T00:08:16.576Z,1.87
2022-07-26T00:10:49.732Z,1.70
2022-07-26T00:13:19.823Z,1.80
2022-07-26T00:15:49.033Z,1.70
2022-07-26T00:18:19.225Z,1.63
2022-07-26T00:20:48.172Z,1.90
2022-07-26T00:23:16.768Z,2.10
2022-07-26T00:25:46.169Z,2.03
2022-07-26T00:28:14.261Z,2.10
2022-07-26T00:30:42.296Z,2.10
2022-07-26T00:33:10.254Z,2.07
2022-07-26T00:35:38.522Z,2.43
2022-07-26T00:38:06.616Z,2.00
2022-07-26T00:40:36.263Z,2.40
2022-07-26T00:43:05.631Z,2.00
2022-07-26T00:45:33.588Z,2.23
2022-07-26T00:48:01.508Z,2.40
2022-07-26T00:50:29.454Z,2.40
2022-07-26T00:52:57.470Z,2.80
2022-07-26T00:55:25.530Z,2.50
2022-07-26T00:57:53.430Z,2.57
2022-07-26T01:00:27.993Z,2.63
2022-07-26T01:02:57.333Z,2.37
2022-07-26T01:05:25.956Z,2.30
2022-07-26T01:07:54.948Z,2.13
2022-07-26T01:10:23.092Z,2.47
2022-07-26T01:12:51.351Z,2.60
2022-07-26T01:15:19.392Z,2.07
2022-07-26T01:17:48.777Z,2.53
2022-07-26T01:20:16.844Z,2.60
2022-07-26T01:22:46.117Z,2.50
2022-07-26T01:25:14.268Z,2.17
2022-07-26T01:27:42.301Z,2.60
2022-07-26T01:30:12.410Z,2.50
2022-07-26T01:32:40.981Z,2.30
2022-07-26T01:35:09.740Z,2.40
2022-07-26T01:37:37.712Z,2.50
2022-07-26T01:40:08.678Z,2.23
2022-07-26T01:42:40.751Z,2.33
2022-07-26T01:45:09.804Z,2.50
2022-07-26T01:47:38.090Z,2.33
2022-07-26T01:50:07.945Z,2.60
2022-07-26T01:52:36.122Z,2.60
2022-07-26T01:55:06.238Z,2.90
2022-07-26T01:57:34.224Z,3.10
2022-07-26T02:00:02.198Z,2.73
2022-07-26T02:02:35.155Z,2.53
2022-07-26T02:05:03.840Z,2.83
2022-07-26T02:07:33.812Z,2.77
2022-07-26T02:10:02.137Z,2.97
2022-07-26T02:12:31.507Z,2.50
2022-07-26T02:15:00.009Z,2.70
2022-07-26T02:17:28.276Z,2.87
2022-07-26T02:19:56.576Z,2.90
2022-07-26T02:22:24.842Z,2.70
2022-07-26T02:24:53.315Z,2.77
2022-07-26T02:27:21.815Z,2.93
2022-07-26T02:29:51.233Z,2.67
2022-07-26T02:32:19.276Z,2.83
2022-07-26T02:34:47.241Z,2.80
2022-07-26T02:37:15.217Z,2.73
2022-07-26T02:39:43.113Z,2.57
2022-07-26T02:42:11.054Z,2.97
2022-07-26T02:44:39.062Z,3.23
2022-07-26T02:47:08.408Z,3.20
2022-07-26T02:49:40.723Z,3.47
2022-07-26T02:52:08.762Z,2.83
2022-07-26T02:54:36.724Z,2.97
2022-07-26T02:57:04.976Z,3.23
2022-07-26T02:59:33.097Z,3.10
2022-07-26T03:02:01.056Z,3.33
2022-07-26T03:04:30.370Z,3.00
2022-07-26T03:06:58.311Z,3.30
2022-07-26T03:09:26.212Z,3.13
2022-07-26T03:11:54.090Z,2.90
2022-07-26T03:14:21.936Z,3.10
2022-07-26T03:16:49.860Z,2.97
2022-07-26T03:19:17.828Z,3.30
2022-07-26T03:21:47.026Z,3.53
2022-07-26T03:24:14.877Z,3.40
2022-07-26T03:26:42.739Z,3.20
2022-07-26T03:29:10.630Z,3.40
2022-07-26T03:31:38.564Z,3.27
2022-07-26T03:34:06.713Z,3.10
2022-07-26T03:36:34.772Z,3.70
2022-07-26T03:39:04.666Z,3.17
2022-07-26T03:41:32.518Z,3.70
2022-07-26T03:44:00.409Z,3.43
2022-07-26T03:46:28.352Z,3.13
2022-07-26T03:48:56.684Z,3.95
2022-07-26T03:51:24.747Z,3.80
2022-07-26T03:53:52.923Z,3.90
2022-07-26T03:56:38.664Z,3.83
2022-07-26T03:59:08.227Z,3.90
2022-07-26T04:01:37.137Z,3.23
2022-07-26T04:04:05.967Z,3.20
2022-07-26T04:06:37.357Z,3.20
2022-07-26T04:09:07.193Z,3.20
2022-07-26T04:11:37.380Z,3.53
2022-07-26T04:14:05.771Z,3.00
2022-07-26T04:16:34.122Z,3.10
2022-07-26T04:19:02.114Z,3.17
2022-07-26T04:21:29.993Z,3.23
2022-07-26T04:23:57.908Z,3.30
2022-07-26T04:26:25.965Z,3.77
2022-07-26T04:28:55.215Z,3.23
2022-07-26T04:31:23.188Z,3.30
2022-07-26T04:33:51.567Z,3.40
2022-07-26T04:36:19.442Z,3.60
2022-07-26T04:38:47.431Z,3.77
2022-07-26T04:41:15.607Z,3.53
2022-07-26T04:43:43.577Z,3.00
2022-07-26T04:46:12.886Z,3.33
2022-07-26T04:48:40.931Z,4.03
2022-07-26T04:51:08.888Z,3.97
2022-07-26T04:53:36.835Z,4.18
2022-07-26T04:56:05.958Z,4.25
2022-07-26T04:58:33.797Z,3.80
2022-07-26T05:01:10.470Z,3.97
2022-07-26T05:03:40.545Z,4.88
2022-07-26T05:06:08.624Z,4.07
2022-07-26T05:08:36.632Z,3.90
2022-07-26T05:11:05.042Z,3.88
2022-07-26T05:13:33.026Z,4.43
2022-07-26T05:16:01.851Z,4.28
2022-07-26T05:18:31.595Z,3.78
2022-07-26T05:21:06.624Z,4.28
2022-07-26T05:23:34.536Z,4.40
2022-07-26T05:26:02.467Z,4.65
2022-07-26T05:28:30.545Z,4.22
2022-07-26T05:30:58.592Z,4.10
2022-07-26T05:33:26.759Z,4.30
2022-07-26T05:35:54.647Z,4.00
2022-07-26T05:38:25.640Z,4.30
2022-07-26T05:40:53.482Z,4.30
2022-07-26T05:43:21.334Z,4.28
2022-07-26T05:45:49.292Z,3.95
2022-07-26T05:48:17.187Z,4.05
2022-07-26T05:50:45.692Z,4.40
2022-07-26T05:53:13.580Z,4.20
2022-07-26T05:55:43.027Z,3.73
2022-07-26T05:58:10.956Z,3.83
2022-07-26T06:00:38.983Z,3.63
2022-07-26T06:03:20.881Z,4.13
2022-07-26T06:05:49.116Z,3.33
2022-07-26T06:08:17.122Z,3.60
2022-07-26T06:10:46.557Z,3.37
2022-07-26T06:13:14.529Z,3.80
2022-07-26T06:15:43.014Z,4.00
2022-07-26T06:18:11.152Z,4.00
2022-07-26T06:20:40.388Z,3.80
2022-07-26T06:23:08.466Z,3.33
2022-07-26T06:25:36.655Z,4.20
2022-07-26T06:28:06.487Z,3.43
2022-07-26T06:30:34.426Z,3.73
2022-07-26T06:33:02.929Z,4.07
2022-07-26T06:35:32.087Z,3.93
2022-07-26T06:38:00.755Z,4.10
2022-07-26T06:40:28.970Z,3.53
2022-07-26T06:43:01.286Z,3.93
2022-07-26T06:45:34.104Z,3.93
2022-07-26T06:48:02.182Z,4.17
2022-07-26T06:50:30.142Z,4.13
2022-07-26T06:52:58.147Z,4.30
2022-07-26T06:55:26.090Z,3.77
2022-07-26T06:57:54.286Z,3.33
2022-07-26T07:00:22.236Z,3.27
2022-07-26T07:02:51.466Z,3.73
2022-07-26T07:05:19.685Z,3.60
2022-07-26T07:07:47.670Z,3.57
2022-07-26T07:10:15.940Z,3.40
2022-07-26T07:12:44.912Z,3.60
2022-07-26T07:15:13.263Z,3.33
2022-07-26T07:17:41.305Z,3.43
2022-07-26T07:20:12.067Z,3.57
2022-07-26T07:22:40.029Z,3.37
2022-07-26T07:25:08.671Z,3.70
2022-07-26T07:27:36.706Z,2.93
2022-07-26T07:30:05.811Z,2.50
2022-07-26T07:32:35.791Z,2.70
2022-07-26T07:35:03.908Z,2.53
2022-07-26T07:37:53.879Z,2.87
2022-07-26T07:40:22.816Z,2.80
2022-07-26T07:42:50.838Z,2.80
2022-07-26T07:45:18.818Z,2.63
2022-07-26T07:47:46.745Z,2.50
2022-07-26T07:50:14.656Z,2.63
2022-07-26T07:52:43.900Z,2.53
2022-07-26T07:55:36.915Z,2.43
2022-07-26T07:57:59.932Z,2.33
2022-07-26T08:00:28.263Z,1.90
2022-07-26T08:02:56.240Z,2.20
2022-07-26T08:05:24.137Z,1.87
2022-07-26T08:07:54.158Z,1.80
2022-07-26T08:10:22.100Z,1.80
2022-07-26T08:12:51.254Z,2.10
2022-07-26T08:15:21.377Z,2.13
2022-07-26T08:17:53.932Z,2.10
2022-07-26T08:20:23.796Z,1.80
2022-07-26T08:22:54.478Z,2.00
2022-07-26T08:25:22.614Z,2.20
2022-07-26T08:28:03.224Z,2.10
2022-07-26T08:30:32.181Z,2.07
2022-07-26T08:33:00.107Z,1.90
2022-07-26T08:35:29.500Z,2.13
2022-07-26T08:37:59.111Z,1.93
2022-07-26T08:40:27.187Z,2.13
2022-07-26T08:42:57.426Z,1.90
2022-07-26T08:45:26.380Z,1.90
2022-07-26T08:48:16.854Z,1.90
2022-07-26T08:50:43.254Z,2.10
2022-07-26T08:53:13.683Z,2.10
2022-07-26T08:56:05.893Z,2.23
2022-07-26T08:58:29.662Z,2.00
2022-07-26T09:01:08.896Z,2.00
2022-07-26T09:03:37.927Z,2.20
2022-07-26T09:06:16.748Z,2.00
2022-07-26T09:08:47.750Z,1.60
2022-07-26T09:11:33.134Z,1.70
2022-07-26T09:14:02.191Z,1.57
2022-07-26T09:16:33.258Z,1.60
2022-07-26T09:19:17.764Z,1.30
2022-07-26T09:21:46.572Z,1.80
2022-07-26T09:24:34.144Z,1.50
2022-07-26T09:27:04.096Z,1.40
2022-07-26T09:29:32.241Z,1.50
2022-07-26T09:32:16.931Z,1.10
2022-07-26T09:34:52.661Z,1.27
2022-07-26T09:37:35.155Z,1.30
2022-07-26T09:40:08.007Z,1.20
2022-07-26T09:42:36.833Z,1.07
2022-07-26T09:45:16.717Z,1.27
2022-07-26T09:47:44.612Z,1.47
2022-07-26T09:50:14.842Z,1.43
2022-07-26T09:53:03.064Z,1.50
2022-07-26T09:55:42.538Z,1.57
2022-07-26T09:58:14.640Z,1.60
2022-07-26T10:00:43.646Z,1.50
2022-07-26T10:03:12.000Z,2.10
2022-07-26T10:05:40.169Z,2.00
2022-07-26T10:08:08.952Z,2.10
2022-07-26T10:10:44.375Z,2.00
2022-07-26T10:13:12.880Z,2.23
2022-07-26T10:15:43.668Z,2.27
2022-07-26T10:18:45.106Z,1.90
2022-07-26T10:21:25.140Z,2.40
2022-07-26T10:23:56.611Z,2.00
2022-07-26T10:26:40.591Z,2.27
2022-07-26T10:29:46.441Z,1.80
2022-07-26T10:32:17.456Z,1.60
2022-07-26T10:34:46.343Z,1.70
2022-07-26T10:37:29.199Z,1.80
2022-07-26T10:40:25.523Z,2.03
2022-07-26T10:43:37.729Z,2.30
2022-07-26T10:46:25.035Z,2.60
2022-07-26T10:49:01.587Z,2.53
2022-07-26T10:51:33.004Z,2.37
2022-07-26T10:54:01.988Z,2.37
2022-07-26T10:56:33.369Z,2.37
2022-07-26T10:59:03.583Z,2.43
2022-07-26T11:01:34.830Z,2.40
2022-07-26T11:04:02.852Z,2.30
2022-07-26T11:06:30.978Z,2.50
2022-07-26T11:08:58.998Z,2.23
2022-07-26T11:11:30.516Z,2.40
2022-07-26T11:14:08.421Z,2.33
2022-07-26T11:16:41.343Z,2.00
2022-07-26T11:19:21.175Z,2.33
2022-07-26T11:21:57.196Z,1.97
2022-07-26T11:24:26.307Z,2.20
2022-07-26T11:26:54.896Z,2.43
2022-07-26T11:29:40.757Z,1.90
2022-07-26T11:32:19.038Z,1.90
2022-07-26T11:34:47.711Z,1.87
2022-07-26T11:37:16.085Z,1.90
2022-07-26T11:39:44.018Z,2.00
2022-07-26T11:42:16.154Z,2.17
2022-07-26T11:44:47.358Z,1.97
2022-07-26T11:47:17.105Z,1.60
2022-07-26T11:50:00.727Z,1.90
2022-07-26T11:52:31.529Z,1.53
2022-07-26T11:54:59.983Z,1.40
2022-07-26T11:57:31.081Z,1.20
2022-07-26T12:00:01.500Z,1.07
2022-07-26T12:02:39.615Z,1.20
2022-07-26T12:05:15.985Z,1.10
2022-07-26T12:07:58.923Z,1.13
2022-07-26T12:10:27.137Z,1.10
2022-07-26T12:13:09.176Z,1.30
2022-07-26T12:15:49.439Z,1.47
2022-07-26T12:18:25.501Z,1.80
2022-07-26T12:21:05.066Z,1.60
2022-07-26T12:23:44.641Z,1.80
2022-07-26T12:26:26.689Z,1.83
2022-07-26T12:28:55.430Z,1.50
2022-07-26T12:31:26.624Z,1.67
2022-07-26T12:33:55.058Z,1.60
2022-07-26T12:36:27.076Z,1.70
2022-07-26T12:38:56.707Z,1.50
2022-07-26T12:41:35.854Z,2.00
2022-07-26T12:44:04.821Z,1.90
2022-07-26T12:46:35.151Z,1.50
2022-07-26T12:49:03.625Z,1.77
2022-07-26T12:51:31.679Z,1.60
2022-07-26T12:53:59.639Z,1.90
2022-07-26T12:56:27.615Z,1.67
2022-07-26T12:59:00.999Z,1.90
2022-07-26T13:01:29.356Z,1.80
2022-07-26T13:03:58.803Z,1.50
2022-07-26T13:06:27.138Z,1.30
2022-07-26T13:08:56.377Z,1.07
2022-07-26T13:11:24.923Z,1.30
2022-07-26T13:13:52.930Z,1.20
2022-07-26T13:16:20.950Z,1.13
2022-07-26T13:18:48.868Z,1.60
2022-07-26T13:21:18.198Z,1.20
2022-07-26T13:23:46.072Z,1.40
2022-07-26T13:26:14.074Z,1.40
2022-07-26T13:28:42.594Z,1.97
2022-07-26T13:31:11.616Z,1.77
2022-07-26T13:33:39.820Z,1.83
2022-07-26T13:36:07.853Z,1.83
2022-07-26T13:38:37.104Z,1.70
2022-07-26T13:41:05.321Z,1.60
2022-07-26T13:43:33.314Z,1.70
2022-07-26T13:46:01.306Z,1.73
2022-07-26T13:48:29.464Z,2.27
2022-07-26T13:50:58.506Z,2.40
2022-07-26T13:53:26.593Z,2.47
2022-07-26T13:55:55.856Z,2.60
2022-07-26T13:58:23.799Z,2.10
2022-07-26T14:00:51.806Z,2.13
2022-07-26T14:03:19.867Z,1.97
2022-07-26T14:05:47.985Z,1.90
2022-07-26T14:08:16.109Z,2.50
2022-07-26T14:10:44.030Z,2.13
2022-07-26T14:13:13.288Z,2.23
2022-07-26T14:15:41.290Z,1.90
2022-07-26T14:18:09.266Z,2.50
2022-07-26T14:20:37.612Z,1.80
2022-07-26T14:23:05.548Z,2.50
2022-07-26T14:25:33.529Z,2.23
2022-07-26T14:28:01.453Z,2.00
2022-07-26T14:30:30.716Z,1.92
2022-07-26T14:32:58.622Z,2.50
2022-07-26T14:35:26.677Z,1.97
2022-07-26T14:37:54.555Z,3.10
2022-07-26T14:40:22.635Z,3.17
2022-07-26T14:42:50.632Z,2.77
2022-07-26T14:45:18.728Z,2.72
2022-07-26T14:47:48.108Z,3.00
2022-07-26T14:50:16.827Z,2.95
2022-07-26T14:58:19.780Z,3.13
2022-07-26T15:00:48.073Z,3.70
2022-07-26T15:03:17.351Z,3.30
2022-07-26T15:05:45.395Z,3.42
2022-07-26T15:08:13.277Z,3.17
2022-07-26T15:10:41.203Z,2.77
2022-07-26T15:13:09.892Z,3.30
2022-07-26T15:15:37.801Z,3.03
2022-07-26T15:18:06.257Z,3.88
2022-07-26T15:20:35.567Z,3.65
2022-07-26T15:23:03.469Z,3.60
2022-07-26T15:25:31.408Z,3.30
2022-07-26T15:27:59.323Z,3.10
2022-07-26T15:30:28.548Z,3.60
2022-07-26T15:32:57.814Z,2.97
2022-07-26T15:35:26.028Z,4.00
2022-07-26T15:37:55.319Z,3.30
2022-07-26T15:40:23.206Z,3.63
2022-07-26T15:42:52.172Z,3.45
2022-07-26T15:45:21.933Z,4.40
2022-07-26T15:47:57.405Z,3.15
2022-07-26T15:50:27.881Z,4.50
2022-07-26T15:52:57.274Z,4.17
2022-07-26T15:55:25.381Z,4.55
2022-07-26T15:57:54.547Z,4.53
2022-07-26T16:00:22.568Z,4.35
2022-07-26T16:02:50.703Z,4.88
2022-07-26T16:05:18.872Z,4.50
2022-07-26T16:07:47.859Z,5.20
2022-07-26T16:10:17.299Z,4.80
2022-07-26T16:12:45.300Z,4.28
2022-07-26T16:15:13.742Z,5.00
2022-07-26T16:17:41.800Z,4.95
2022-07-26T16:20:11.024Z,4.50
2022-07-26T16:22:41.033Z,4.63
2022-07-26T16:25:13.015Z,5.22
2022-07-26T16:27:43.668Z,4.93
2022-07-26T16:30:13.545Z,5.13
2022-07-26T16:32:41.459Z,4.60
2022-07-26T16:35:10.321Z,3.90
2022-07-26T16:37:38.324Z,4.07
2022-07-26T16:40:07.836Z,4.25
2022-07-26T16:42:35.748Z,4.00
2022-07-26T16:45:05.642Z,4.10
2022-07-26T16:47:33.557Z,3.85
2022-07-26T16:50:01.447Z,4.15
2022-07-26T16:52:29.523Z,3.90
2022-07-26T16:54:57.416Z,3.77
2022-07-26T16:57:25.294Z,3.63
2022-07-26T16:59:53.317Z,3.70
2022-07-26T17:02:22.645Z,3.50
2022-07-26T17:04:50.607Z,4.15
2022-07-26T17:07:26.377Z,4.25
2022-07-26T17:09:55.063Z,4.90
2022-07-26T17:12:23.318Z,4.60
2022-07-26T17:14:51.519Z,3.88
2022-07-26T17:17:19.613Z,2.60
2022-07-26T17:19:49.005Z,2.85
2022-07-26T17:22:17.935Z,2.55
2022-07-26T17:24:46.059Z,2.38
2022-07-26T17:27:14.248Z,2.40
2022-07-26T17:29:42.317Z,2.63
2022-07-26T17:32:10.752Z,3.00
2022-07-26T17:34:39.077Z,2.75
2022-07-26T17:37:10.220Z,2.97
2022-07-26T17:39:53.657Z,2.90
2022-07-26T17:42:22.576Z,2.38
2022-07-26T17:44:50.938Z,2.88
2022-07-26T17:47:29.680Z,2.33
2022-07-26T17:52:51.720Z,2.60
2022-07-26T17:55:20.482Z,2.55
2022-07-26T17:57:50.050Z,2.65
2022-07-26T18:00:19.112Z,2.20
2022-07-26T18:02:47.122Z,2.50
2022-07-26T18:05:15.711Z,2.75
2022-07-26T18:07:43.687Z,2.33
2022-07-26T18:10:14.279Z,2.17
2022-07-26T18:12:42.304Z,2.10
2022-07-26T18:15:11.141Z,2.35
2022-07-26T18:17:39.168Z,1.98
2022-07-26T18:20:08.356Z,1.98
2022-07-26T18:22:36.287Z,2.20
2022-07-26T18:25:05.345Z,2.00
2022-07-26T18:27:34.735Z,2.03
2022-07-26T18:30:02.671Z,2.10
2022-07-26T18:32:30.592Z,1.95
2022-07-26T18:34:58.455Z,2.00
2022-07-26T18:37:26.377Z,2.00
2022-07-26T18:39:57.901Z,2.10
2022-07-26T18:42:26.226Z,2.00
2022-07-26T18:44:55.474Z,2.05
2022-07-26T18:47:23.497Z,2.15
2022-07-26T18:49:51.614Z,2.30
2022-07-26T18:52:28.127Z,2.10
2022-07-26T18:55:01.425Z,2.17
2022-07-26T18:57:29.528Z,1.90
2022-07-26T18:59:58.800Z,1.90
2022-07-26T19:02:26.931Z,2.20
2022-07-26T19:04:54.869Z,1.80
2022-07-26T19:07:22.776Z,1.85
2022-07-26T19:09:54.962Z,1.97
2022-07-26T19:12:26.050Z,1.92
2022-07-26T19:14:54.052Z,1.83
2022-07-26T19:17:23.602Z,2.20
2022-07-26T19:19:51.496Z,2.05
2022-07-26T19:22:19.684Z,2.17
2022-07-26T19:24:48.750Z,2.20
2022-07-26T19:27:16.640Z,2.03
2022-07-26T19:29:44.635Z,1.98
2022-07-26T19:32:12.677Z,2.00
2022-07-26T19:34:42.139Z,2.03
2022-07-26T19:37:10.133Z,1.88
2022-07-26T19:39:38.251Z,1.90
2022-07-26T19:42:06.322Z,1.80
2022-07-26T19:44:34.183Z,1.98
2022-07-26T19:47:02.134Z,1.90
2022-07-26T19:49:30.047Z,1.90
2022-07-26T19:51:59.758Z,1.83
2022-07-26T19:54:28.259Z,1.60
2022-07-26T19:56:56.287Z,1.83
2022-07-26T19:59:24.812Z,1.70
2022-07-26T20:01:55.235Z,2.08
2022-07-26T20:04:26.505Z,1.80
2022-07-26T20:06:55.070Z,1.90
2022-07-26T20:09:24.568Z,1.90
2022-07-26T20:11:52.582Z,2.05
2022-07-26T20:14:21.616Z,1.90
2022-07-26T20:16:54.309Z,2.40
2022-07-26T20:19:24.968Z,2.40
2022-07-26T20:21:52.884Z,1.90
2022-07-26T20:24:20.771Z,1.83
2022-07-26T20:26:50.034Z,1.90
2022-07-26T20:29:18.080Z,1.90
2022-07-26T20:31:46.249Z,1.85
2022-07-26T20:34:14.113Z,1.97
2022-07-26T20:36:42.022Z,1.98
2022-07-26T20:39:10.815Z,2.08
2022-07-26T20:41:39.055Z,2.00
2022-07-26T20:44:08.549Z,2.00
2022-07-26T20:46:39.929Z,2.03
2022-07-26T20:49:09.082Z,2.10
2022-07-26T20:51:37.732Z,2.00
2022-07-26T20:54:06.421Z,1.95
2022-07-26T20:56:34.452Z,2.03
2022-07-26T20:59:02.901Z,2.03
2022-07-26T21:01:33.199Z,2.00
2022-07-26T21:04:01.282Z,2.05
2022-07-26T21:06:29.646Z,2.20
2022-07-26T21:08:57.862Z,2.20
2022-07-26T21:11:25.964Z,1.90
2022-07-26T21:13:53.832Z,1.92
2022-07-26T21:16:21.878Z,1.90
2022-07-26T21:18:53.100Z,1.90
2022-07-26T21:21:22.489Z,2.03
2022-07-26T21:23:50.787Z,1.92
2022-07-26T21:26:18.653Z,1.92
2022-07-26T21:28:46.659Z,1.73
2022-07-26T21:31:14.595Z,1.80
2022-07-26T21:33:44.099Z,1.98
2022-07-26T21:36:14.307Z,1.90
2022-07-26T21:38:42.275Z,2.08
2022-07-26T21:41:10.310Z,1.85
2022-07-26T21:43:41.679Z,1.90
2022-07-26T21:46:12.618Z,2.00
2022-07-26T21:48:41.186Z,1.60
2022-07-26T21:51:09.283Z,2.10
2022-07-26T21:53:38.547Z,1.70
2022-07-26T21:56:06.591Z,1.90
2022-07-26T21:58:36.878Z,1.80
2022-07-26T22:01:06.543Z,1.80
2022-07-26T22:03:37.013Z,1.77
2022-07-26T22:06:05.875Z,1.90
2022-07-26T22:08:33.972Z,1.73
2022-07-26T22:11:03.908Z,1.85
2022-07-26T22:13:32.064Z,2.13
2022-07-26T22:16:00.036Z,1.95
2022-07-26T22:18:28.209Z,1.85
2022-07-26T22:20:56.192Z,2.10
2022-07-26T22:23:29.751Z,1.90
2022-07-26T22:25:58.267Z,1.92
2022-07-26T22:28:27.466Z,1.77
2022-07-26T22:30:55.742Z,1.90
2022-07-26T22:33:24.292Z,2.22
2022-07-26T22:35:52.873Z,2.30
2022-07-26T22:38:20.873Z,2.20
2022-07-26T22:40:48.776Z,2.42
2022-07-26T22:43:16.712Z,2.42
2022-07-26T22:45:46.058Z,2.20
2022-07-26T22:48:14.085Z,2.60
2022-07-26T22:50:41.920Z,2.60
2022-07-26T22:53:09.929Z,2.40
2022-07-26T22:55:38.019Z,2.50
2022-07-26T22:58:05.990Z,2.58
2022-07-26T23:00:34.135Z,2.63
2022-07-26T23:03:03.642Z,2.40
2022-07-26T23:05:45.539Z,2.40
2022-07-26T23:08:36.614Z,2.43
2022-07-26T23:11:02.043Z,2.25
2022-07-26T23:13:29.997Z,2.22
2022-07-26T23:16:00.864Z,2.10
2022-07-26T23:18:31.486Z,2.17
2022-07-26T23:20:59.554Z,2.20
2022-07-26T23:23:29.580Z,2.50
2022-07-26T23:25:58.975Z,2.20
2022-07-26T23:28:36.097Z,2.20
2022-07-26T23:31:10.752Z,2.15
2022-07-26T23:33:53.157Z,2.10
2022-07-26T23:36:26.703Z,2.10
2022-07-26T23:38:55.623Z,2.40
2022-07-26T23:41:23.656Z,2.38
2022-07-26T23:43:51.575Z,2.15
2022-07-26T23:46:19.602Z,2.20
2022-07-26T23:48:49.080Z,2.30
2022-07-26T23:51:17.414Z,2.05
2022-07-26T23:53:45.299Z,2.25
2022-07-26T23:56:13.453Z,2.10
2022-07-26T23:58:41.386Z,2.20
